Time;durP1;ratioP1;P1;durP2;ratioP2;P2;SDS_P1;SDS_P2;PMS_P1;PMS_P2;Temp;Humidity;BMP_temperature;BMP_pressure;BME280_temperature;BME280_humidity;BME280_pressure;Samples;Min_cycle;Max_cycle;Signal;HPM_P1;HPM_P2
2023/04/20 00:01:26;;;;;;;6.73;4.17;;;;;;;5.15;81.80;97748.31;6239510;28;20788;-88
2023/04/20 00:04:28;;;;;;;4.07;3.67;;;;;;;4.86;82.58;97693.31;6240242;28;20241;-88
2023/04/20 00:07:30;;;;;;;4.70;3.77;;;;;;;5.22;83.59;97752.75;6233648;28;20370;-88
2023/04/20 00:10:33;;;;;;;5.30;4.30;;;;;;;5.07;83.69;97723.94;6239371;28;20237;-88
2023/04/20 00:13:35;;;;;;;3.60;3.30;;;;;;;5.42;84.49;97794.00;6239115;28;20242;-88
2023/04/20 00:16:37;;;;;;;6.47;3.77;;;;;;;3.97;84.56;97588.22;6231015;28;20228;-88
2023/04/20 00:19:40;;;;;;;3.90;3.50;;;;;;;4.31;85.82;97638.13;6242027;28;20228;-88
2023/04/20 00:22:42;;;;;;;4.97;3.87;;;;;;;3.07;85.48;97437.59;6227791;28;20231;-87
2023/04/20 00:25:44;;;;;;;4.17;3.77;;;;;;;4.05;85.97;97585.41;6255195;28;20254;-88
2023/04/20 00:28:46;;;;;;;4.80;3.57;;;;;;;5.16;86.27;97771.03;6229332;28;20229;-88
2023/04/20 00:31:48;;;;;;;5.40;3.40;;;;;;;4.69;86.25;97739.59;6256174;28;20263;-88
2023/04/20 00:34:50;;;;;;;10.23;4.23;;;;;;;4.51;86.33;97672.41;6265106;28;20218;-88
2023/04/20 00:37:52;;;;;;;8.00;4.33;;;;;;;3.79;86.39;97565.09;6268540;28;20301;-88
2023/04/20 00:40:55;;;;;;;5.20;4.57;;;;;;;5.09;86.56;97764.16;6242433;28;20700;-88
2023/04/20 00:43:57;;;;;;;4.77;4.03;;;;;;;5.06;87.02;97761.91;6248985;28;20252;-88
2023/04/20 00:46:59;;;;;;;5.40;4.67;;;;;;;3.05;86.73;97473.81;6242878;28;20326;-88
2023/04/20 00:50:01;;;;;;;7.23;5.70;;;;;;;4.13;86.69;97619.44;6240000;28;20233;-87
2023/04/20 00:53:06;;;;;;;5.43;4.87;;;;;;;4.16;86.51;97674.44;6237139;28;20231;-87
2023/04/20 00:56:08;;;;;;;7.33;5.90;;;;;;;4.94;86.92;97753.81;6238342;28;20597;-87
2023/04/20 00:59:11;;;;;;;5.50;5.00;;;;;;;4.71;85.93;97701.44;6238086;28;20258;-87
2023/04/20 01:02:13;;;;;;;6.47;5.53;;;;;;;4.62;86.04;97692.09;6237581;28;20731;-87
2023/04/20 01:05:16;;;;;;;8.47;7.37;;;;;;;4.55;86.08;97700.03;6254009;28;20246;-87
2023/04/20 01:08:18;;;;;;;8.07;6.90;;;;;;;4.53;86.13;97665.13;6254177;28;20308;-87
2023/04/20 01:11:20;;;;;;;14.33;9.57;;;;;;;5.10;86.03;97773.69;6236817;28;20259;-87
2023/04/20 01:14:22;;;;;;;11.17;8.50;;;;;;;4.83;86.22;97734.13;6237094;28;20255;-87
2023/04/20 01:17:25;;;;;;;12.93;8.63;;;;;;;5.00;86.19;97758.28;6249247;28;20699;-87
2023/04/20 01:20:27;;;;;;;13.70;10.60;;;;;;;3.52;86.03;97495.78;6232046;28;20224;-87
2023/04/20 01:23:33;;;;;;;10.73;8.73;;;;;;;4.60;86.08;97663.28;6237395;28;20236;-88
2023/04/20 01:26:37;;;;;;;14.67;12.10;;;;;;;3.30;85.68;97472.28;6248007;28;20323;-88
2023/04/20 01:29:41;;;;;;;17.00;12.40;;;;;;;3.63;85.39;97503.06;6214498;28;20224;-88
2023/04/20 01:32:44;;;;;;;19.57;12.20;;;;;;;4.07;84.95;97570.19;6235837;28;20238;-87
2023/04/20 01:35:47;;;;;;;15.57;12.50;;;;;;;4.35;85.22;97609.53;6252614;28;20238;-87
2023/04/20 01:38:50;;;;;;;16.10;12.53;;;;;;;4.00;85.61;97564.13;6252834;28;20242;-87
2023/04/20 01:41:52;;;;;;;15.97;12.93;;;;;;;4.37;85.01;97605.66;6237141;28;20269;-87
2023/04/20 01:44:54;;;;;;;17.83;13.60;;;;;;;4.60;85.42;97642.19;6247216;28;20243;-87
2023/04/20 01:47:56;;;;;;;16.57;13.60;;;;;;;4.47;85.72;97651.91;6230426;28;20759;-87
2023/04/20 01:51:00;;;;;;;16.07;13.90;;;;;;;4.63;85.12;97672.59;6257027;28;20232;-88
2023/04/20 01:54:02;;;;;;;16.77;13.57;;;;;;;5.17;85.62;97732.25;6232039;28;20289;-88
2023/04/20 01:57:04;;;;;;;16.83;13.43;;;;;;;3.85;85.52;97535.31;6252190;28;20349;-87
2023/04/20 02:00:08;;;;;;;17.27;13.70;;;;;;;4.46;85.73;97645.84;6257277;28;20749;-87
2023/04/20 02:03:17;;;;;;;16.97;13.43;;;;;;;3.02;85.64;97408.44;6249121;28;20200;-88
2023/04/20 02:06:21;;;;;;;17.77;14.23;;;;;;;5.25;86.31;97736.50;6248018;28;20232;-88
2023/04/20 02:09:23;;;;;;;15.87;13.57;;;;;;;5.07;86.10;97727.38;6249473;28;20224;-88
2023/04/20 02:12:25;;;;;;;17.17;13.53;;;;;;;3.95;86.49;97556.00;6249463;28;20226;-88
2023/04/20 02:15:27;;;;;;;14.70;12.40;;;;;;;5.14;86.97;97737.94;6241936;28;20229;-88
2023/04/20 02:18:31;;;;;;;17.30;13.43;;;;;;;2.82;86.54;97385.53;6259890;28;20254;-88
2023/04/20 02:21:34;;;;;;;15.93;12.50;;;;;;;2.83;86.55;97402.94;6228354;28;20732;-88
2023/04/20 02:24:36;;;;;;;14.37;12.40;;;;;;;4.64;86.95;97650.50;6263888;28;20224;-88
2023/04/20 02:27:39;;;;;;;18.40;13.60;;;;;;;4.29;86.72;97594.53;6238214;28;20282;-88
2023/04/20 02:30:41;;;;;;;18.23;12.97;;;;;;;4.25;86.98;97585.41;6238855;28;20277;-88
2023/04/20 02:33:46;;;;;;;19.57;14.93;;;;;;;3.77;85.97;97520.50;6236512;28;20230;-88
2023/04/20 02:36:49;;;;;;;20.53;16.10;;;;;;;3.29;86.25;97444.31;6250374;28;20702;-88
2023/04/20 02:39:51;;;;;;;23.30;16.73;;;;;;;4.13;85.45;97558.81;6239361;28;20232;-88
2023/04/20 02:42:53;;;;;;;24.47;17.63;;;;;;;2.64;85.06;97326.63;6229509;28;20587;-88
2023/04/20 02:45:56;;;;;;;22.47;16.33;;;;;;;3.87;85.25;97525.38;6222703;28;20313;-88
2023/04/20 02:48:58;;;;;;;23.60;16.50;;;;;;;3.30;85.65;97453.84;6202548;28;20310;-88
2023/04/20 02:52:01;;;;;;;24.00;17.17;;;;;;;4.99;85.59;97716.25;6220537;28;20334;-88
2023/04/20 02:55:04;;;;;;;22.53;16.60;;;;;;;4.44;85.46;97631.25;6234029;28;20228;-88
2023/04/20 02:58:06;;;;;;;20.77;16.27;;;;;;;4.17;85.73;97612.78;6230944;28;20601;-88
2023/04/20 03:01:29;;;;;;;21.67;16.67;;;;;;;3.98;85.22;97587.22;6206734;28;20361;-88
2023/04/20 03:04:38;;;;;;;25.10;16.10;;;;;;;4.13;85.72;97635.28;6231468;28;20241;-88
2023/04/20 03:07:48;;;;;;;21.40;15.43;;;;;;;4.38;85.47;97649.50;6217833;28;20233;-88
2023/04/20 03:10:50;;;;;;;19.63;14.73;;;;;;;4.92;84.93;97735.50;6227972;28;20282;-89
2023/04/20 03:13:54;;;;;;;19.93;13.80;;;;;;;4.25;84.90;97627.59;6216350;28;20366;-88
2023/04/20 03:16:57;;;;;;;17.27;12.70;;;;;;;4.91;85.14;97746.28;6213616;28;20228;-88
2023/04/20 03:19:59;;;;;;;18.10;13.47;;;;;;;4.92;85.31;97767.19;6219602;28;20235;-89
2023/04/20 03:23:02;;;;;;;19.07;12.70;;;;;;;3.96;84.45;97592.69;6211820;28;20238;-88
2023/04/20 03:26:04;;;;;;;14.57;11.30;;;;;;;4.07;84.61;97630.81;6220765;28;20251;-88
2023/04/20 03:29:24;;;;;;;15.60;12.00;;;;;;;4.45;84.95;97657.41;6240457;28;20225;-88
2023/04/20 03:32:27;;;;;;;15.73;12.33;;;;;;;4.48;84.26;97672.00;6235975;28;20743;-88
2023/04/20 03:35:32;;;;;;;14.93;10.97;;;;;;;4.40;84.54;97679.13;6244240;28;20233;-88
2023/04/20 03:38:34;;;;;;;12.10;10.27;;;;;;;4.73;84.60;97736.38;6226692;28;20231;-88
2023/04/20 03:41:36;;;;;;;11.03;9.33;;;;;;;3.84;84.67;97618.00;6235346;28;20273;-88
2023/04/20 03:44:39;;;;;;;14.00;10.67;;;;;;;4.73;84.74;97741.63;6260219;28;20258;-88
2023/04/20 03:47:42;;;;;;;11.77;10.07;;;;;;;4.38;84.90;97691.69;6247906;28;20234;-88
2023/04/20 03:50:44;;;;;;;13.23;10.67;;;;;;;4.71;84.99;97742.84;6274032;28;20214;-87
2023/04/20 03:53:46;;;;;;;14.00;11.70;;;;;;;3.26;84.61;97515.00;6283652;28;20232;-88
2023/04/20 03:56:49;;;;;;;13.13;10.90;;;;;;;4.48;84.93;97703.66;6292228;28;20624;-87
2023/04/20 03:59:52;;;;;;;13.87;11.77;;;;;;;3.15;84.77;97495.31;6270399;28;20298;-88
2023/04/20 04:02:56;;;;;;;13.37;10.93;;;;;;;3.06;84.35;97488.63;6297163;28;20221;-88
2023/04/20 04:06:02;;;;;;;12.37;10.63;;;;;;;3.15;84.56;97494.50;6274324;28;20244;-89
2023/04/20 04:09:06;;;;;;;14.50;11.93;;;;;;;4.17;83.96;97667.31;6241507;28;20221;-88
2023/04/20 04:12:09;;;;;;;13.40;11.57;;;;;;;3.35;83.84;97542.75;6260546;28;20301;-88
2023/04/20 04:15:12;;;;;;;13.57;11.00;;;;;;;4.14;84.08;97681.72;6238580;28;20218;-88
2023/04/20 04:18:23;;;;;;;15.23;12.97;;;;;;;2.99;83.79;97485.16;6259403;28;20231;-88
2023/04/20 04:21:27;;;;;;;16.37;13.23;;;;;;;4.61;83.74;97737.97;6250562;28;20236;-88
2023/04/20 04:24:37;;;;;;;14.13;12.37;;;;;;;3.88;84.07;97621.84;6250109;28;20232;-88
2023/04/20 04:27:42;;;;;;;11.70;10.47;;;;;;;2.91;83.87;97491.41;6251578;28;20220;-88
2023/04/20 04:30:46;;;;;;;13.43;10.93;;;;;;;3.97;84.36;97627.75;6251723;28;20814;-87
2023/04/20 04:33:48;;;;;;;11.20;9.87;;;;;;;3.60;84.11;97593.84;6259294;28;20321;-87
2023/04/20 04:37:02;;;;;;;9.33;8.33;;;;;;;4.32;84.25;97686.41;6236051;28;20744;-88
2023/04/20 04:40:19;;;;;;;13.93;11.07;;;;;;;3.87;84.21;97631.59;6244207;28;20343;-88
2023/04/20 04:43:24;;;;;;;15.37;12.53;;;;;;;4.75;84.29;97757.25;6224095;28;20704;-88
2023/04/20 04:46:38;;;;;;;14.43;11.40;;;;;;;4.05;84.24;97646.84;6233111;28;20332;-88
2023/04/20 04:49:41;;;;;;;18.47;13.43;;;;;;;4.72;84.13;97781.41;6243067;28;20252;-88
2023/04/20 04:52:44;;;;;;;17.03;13.87;;;;;;;4.04;83.66;97657.56;6217760;28;20240;-87
2023/04/20 04:55:47;;;;;;;19.40;14.60;;;;;;;4.31;83.40;97701.41;6225929;28;20237;-88
2023/04/20 04:58:49;;;;;;;17.87;13.80;;;;;;;3.69;83.56;97623.44;6237058;28;20224;-88
2023/04/20 05:01:51;;;;;;;18.97;13.73;;;;;;;3.25;83.60;97555.47;6223476;28;20239;-88
2023/04/20 05:04:53;;;;;;;16.97;13.77;;;;;;;4.70;83.51;97764.97;6225162;28;20231;-88
2023/04/20 05:07:56;;;;;;;16.63;13.57;;;;;;;4.00;83.51;97665.06;6216218;28;20242;-89
2023/04/20 05:10:58;;;;;;;17.07;14.47;;;;;;;4.40;83.55;97717.88;6202952;28;20247;-89
2023/04/20 05:14:01;;;;;;;16.77;12.87;;;;;;;4.04;83.43;97673.38;6231352;28;20246;-88
2023/04/20 05:17:03;;;;;;;17.23;13.63;;;;;;;3.10;82.50;97519.59;6208783;28;20294;-88
2023/04/20 05:20:07;;;;;;;16.00;13.33;;;;;;;2.92;83.13;97479.88;6224620;28;20252;-88
2023/04/20 05:23:09;;;;;;;17.00;13.33;;;;;;;4.83;82.63;97781.63;6210558;28;20232;-88
2023/04/20 05:26:12;;;;;;;18.93;14.47;;;;;;;3.53;82.63;97568.50;6223203;28;20247;-88
2023/04/20 05:29:15;;;;;;;18.20;14.07;;;;;;;4.33;82.29;97694.09;6206282;28;20322;-88
2023/04/20 05:32:18;;;;;;;17.70;13.83;;;;;;;4.86;82.75;97777.75;6207838;28;20722;-89
2023/04/20 05:35:20;;;;;;;19.27;14.47;;;;;;;2.77;82.75;97453.72;6215055;28;20232;-88
2023/04/20 05:38:23;;;;;;;16.37;13.57;;;;;;;4.57;82.86;97731.47;6224488;28;20228;-88
2023/04/20 05:41:26;;;;;;;19.27;14.77;;;;;;;3.65;81.56;97585.38;6215947;28;20231;-88
2023/04/20 05:44:28;;;;;;;19.00;14.77;;;;;;;4.56;82.17;97735.94;6262521;28;20234;-88
2023/04/20 05:47:30;;;;;;;20.07;14.73;;;;;;;4.37;81.71;97715.63;6228721;28;20739;-88
2023/04/20 05:50:33;;;;;;;17.67;14.17;;;;;;;2.92;81.71;97481.69;6231017;28;20234;-88
2023/04/20 05:53:35;;;;;;;20.70;15.17;;;;;;;4.11;82.04;97651.31;6244504;28;20230;-89
2023/04/20 05:56:37;;;;;;;18.67;13.93;;;;;;;4.69;81.74;97750.16;6257248;28;20310;-88
2023/04/20 05:59:40;;;;;;;18.97;14.40;;;;;;;4.73;81.54;97760.13;6245867;28;20744;-89
2023/04/20 06:02:42;;;;;;;21.20;16.30;;;;;;;4.52;81.52;97710.97;6233993;28;20228;-89
2023/04/20 06:05:45;;;;;;;19.83;15.30;;;;;;;3.44;81.79;97520.47;6240718;28;20242;-88
2023/04/20 06:08:47;;;;;;;18.27;14.40;;;;;;;4.64;80.93;97705.91;6247953;28;20224;-88
2023/04/20 06:11:49;;;;;;;17.73;14.53;;;;;;;3.38;81.27;97500.22;6228913;28;20652;-89
2023/04/20 06:14:51;;;;;;;18.40;14.80;;;;;;;4.64;81.53;97705.91;6264859;28;20251;-89
2023/04/20 06:17:53;;;;;;;20.13;15.60;;;;;;;4.39;81.48;97656.41;6248788;28;20232;-88
2023/04/20 06:20:56;;;;;;;19.77;15.00;;;;;;;4.24;81.76;97618.88;6232160;28;20231;-89
2023/04/20 06:23:58;;;;;;;19.67;14.97;;;;;;;3.52;81.26;97537.91;6238851;28;20718;-88
2023/04/20 06:27:01;;;;;;;19.13;15.17;;;;;;;5.28;81.27;97787.09;6230452;28;20697;-88
2023/04/20 06:30:04;;;;;;;18.43;14.83;;;;;;;3.95;81.32;97569.19;6225558;28;20588;-89
2023/04/20 06:33:06;;;;;;;20.27;16.13;;;;;;;5.45;80.95;97800.69;6239544;28;20649;-89
2023/04/20 06:36:11;;;;;;;19.67;15.20;;;;;;;4.80;80.13;97705.50;6242479;28;20219;-88
2023/04/20 06:39:16;;;;;;;19.10;14.27;;;;;;;4.86;80.79;97731.06;6231205;28;20213;-88
2023/04/20 06:42:18;;;;;;;18.37;14.73;;;;;;;4.49;80.72;97653.34;6235525;28;20282;-88
2023/04/20 06:45:20;;;;;;;18.80;14.50;;;;;;;4.72;81.32;97695.13;6239160;28;20785;-89
2023/04/20 06:48:23;;;;;;;17.80;14.23;;;;;;;4.43;79.94;97629.59;6231805;28;20304;-89
2023/04/20 06:51:33;;;;;;;19.67;14.40;;;;;;;4.03;80.37;97550.50;6236805;28;20240;-88
2023/04/20 06:54:35;;;;;;;19.53;14.80;;;;;;;4.25;80.05;97583.56;6248522;28;20236;-88
2023/04/20 06:57:38;;;;;;;16.40;13.73;;;;;;;5.33;80.46;97737.09;6237298;28;20228;-88
2023/04/20 07:00:40;;;;;;;17.40;13.53;;;;;;;5.10;80.70;97674.16;6253466;28;20300;-88
2023/04/20 07:03:42;;;;;;;17.60;13.87;;;;;;;4.09;80.04;97499.63;6236590;28;20233;-89
2023/04/20 07:06:45;;;;;;;18.90;14.67;;;;;;;5.66;79.89;97730.91;6229480;28;20242;-86
2023/04/20 07:09:47;;;;;;;18.50;14.83;;;;;;;5.29;79.55;97693.63;6231583;28;20305;-87
2023/04/20 07:12:49;;;;;;;19.27;14.83;;;;;;;5.17;79.11;97674.97;6266638;28;20236;-86
2023/04/20 07:15:52;;;;;;;20.40;15.90;;;;;;;4.54;79.36;97590.25;6241886;28;20298;-87
2023/04/20 07:18:54;;;;;;;19.47;14.70;;;;;;;5.87;78.99;97802.00;6263555;28;20236;-86
2023/04/20 07:21:56;;;;;;;19.43;15.10;;;;;;;4.51;79.10;97579.28;6282155;28;20249;-88
2023/04/20 07:25:06;;;;;;;20.13;14.07;;;;;;;5.37;79.37;97706.63;6267913;28;20219;-86
2023/04/20 07:28:08;;;;;;;17.37;14.57;;;;;;;4.28;78.37;97519.06;6277848;28;20228;-88
2023/04/20 07:31:10;;;;;;;19.70;15.10;;;;;;;6.21;78.34;97823.88;6244458;28;20234;-86
2023/04/20 07:34:13;;;;;;;19.27;14.10;;;;;;;6.30;77.85;97811.22;6233722;28;20713;-87
2023/04/20 07:37:15;;;;;;;16.43;13.23;;;;;;;5.12;77.84;97629.06;6250029;28;20244;-89
2023/04/20 07:40:17;;;;;;;16.33;12.13;;;;;;;4.83;77.50;97567.03;6261014;28;20643;-88
2023/04/20 07:43:19;;;;;;;17.57;13.03;;;;;;;6.58;77.71;97797.63;6246912;28;20722;-88
2023/04/20 07:46:22;;;;;;;16.87;14.30;;;;;;;6.35;76.88;97755.81;6232063;28;20236;-88
2023/04/20 07:49:25;;;;;;;14.93;12.83;;;;;;;6.82;76.86;97825.97;6243548;28;20322;-88
2023/04/20 07:52:27;;;;;;;17.27;14.03;;;;;;;6.58;76.14;97761.38;6242901;28;20233;-88
2023/04/20 07:55:29;;;;;;;16.40;14.00;;;;;;;5.37;76.02;97585.13;6264179;28;20247;-88
2023/04/20 07:58:31;;;;;;;15.73;13.00;;;;;;;5.93;75.49;97707.84;6270336;28;20610;-88
2023/04/20 08:01:35;;;;;;;15.93;13.47;;;;;;;6.76;75.66;97816.25;6234449;28;20302;-88
2023/04/20 08:04:38;;;;;;;17.43;13.50;;;;;;;6.19;76.18;97723.56;6258955;28;20259;-88
2023/04/20 08:07:40;;;;;;;15.33;12.63;;;;;;;6.23;76.22;97726.59;6257913;28;20734;-88
2023/04/20 08:10:42;;;;;;;17.07;13.27;;;;;;;6.55;75.08;97721.28;6236875;28;20229;-88
2023/04/20 08:13:44;;;;;;;17.37;13.50;;;;;;;6.70;74.87;97753.59;6238959;28;20267;-88
2023/04/20 08:16:46;;;;;;;13.80;11.97;;;;;;;6.47;75.16;97672.09;6241937;28;20269;-88
2023/04/20 08:19:49;;;;;;;15.47;12.10;;;;;;;6.90;74.79;97721.66;6234075;28;20612;-87
2023/04/20 08:22:52;;;;;;;14.47;12.70;;;;;;;7.09;75.96;97723.28;6238804;28;20234;-87
2023/04/20 08:25:54;;;;;;;15.07;12.90;;;;;;;7.27;73.30;97727.81;6242236;28;20231;-88
2023/04/20 08:28:56;;;;;;;16.27;13.30;;;;;;;7.08;72.94;97687.22;6240318;28;20322;-88
2023/04/20 08:31:58;;;;;;;14.10;11.60;;;;;;;7.86;72.94;97818.34;6245602;28;20293;-88
2023/04/20 08:35:01;;;;;;;16.53;14.27;;;;;;;7.43;72.92;97774.94;6253211;28;20227;-88
2023/04/20 08:38:03;;;;;;;14.77;12.53;;;;;;;7.73;73.16;97808.69;6254208;28;20234;-88
2023/04/20 08:41:05;;;;;;;17.63;13.53;;;;;;;7.20;72.78;97700.59;6256479;28;20316;-87
2023/04/20 08:44:07;;;;;;;15.63;12.50;;;;;;;8.11;72.20;97802.34;6247192;28;20242;-88
2023/04/20 08:47:10;;;;;;;17.30;13.77;;;;;;;8.29;72.34;97794.38;6205797;28;20813;-88
2023/04/20 08:50:14;;;;;;;14.43;12.43;;;;;;;6.98;71.39;97557.97;6212960;28;20330;-88
2023/04/20 08:53:16;;;;;;;16.30;12.00;;;;;;;8.55;71.05;97747.28;6207626;28;20595;-87
2023/04/20 08:56:18;;;;;;;15.03;13.37;;;;;;;7.39;70.72;97511.41;6216569;28;20683;-87
2023/04/20 08:59:21;;;;;;;14.43;12.13;;;;;;;9.27;67.08;97753.28;6227051;28;20298;-87
2023/04/20 09:02:23;;;;;;;12.40;11.17;;;;;;;8.70;67.97;97687.38;6233655;28;20734;-87
2023/04/20 09:05:27;;;;;;;12.90;11.57;;;;;;;8.19;69.06;97585.28;6225407;28;20224;-87
2023/04/20 09:08:41;;;;;;;13.67;12.27;;;;;;;9.67;67.96;97811.06;6216689;28;20242;-88
2023/04/20 09:11:44;;;;;;;15.67;11.33;;;;;;;9.66;67.15;97804.16;6220420;28;20244;-87
2023/04/20 09:14:47;;;;;;;15.43;12.23;;;;;;;7.52;67.10;97499.78;6225606;28;20301;-87
2023/04/20 09:17:49;;;;;;;13.23;11.73;;;;;;;8.85;68.00;97684.28;6229214;28;20597;-87
2023/04/20 09:20:51;;;;;;;12.73;11.40;;;;;;;8.71;67.44;97622.59;6209465;28;20259;-87
2023/04/20 09:24:02;;;;;;;14.07;11.33;;;;;;;10.02;67.85;97792.38;6213022;28;20233;-88
2023/04/20 09:27:15;;;;;;;14.00;11.40;;;;;;;8.39;67.17;97465.53;6224911;28;20244;-88
2023/04/20 09:30:17;;;;;;;14.23;12.73;;;;;;;10.28;64.43;97706.66;6237183;28;20214;-88
2023/04/20 09:33:26;;;;;;;13.83;11.97;;;;;;;9.22;63.76;97519.28;6227187;28;20679;-88
2023/04/20 09:36:41;;;;;;;14.17;11.83;;;;;;;10.86;63.88;97704.72;6227648;28;20240;-88
2023/04/20 09:39:44;;;;;;;13.00;11.33;;;;;;;9.42;62.59;97479.75;6229377;28;20241;-88
2023/04/20 09:42:48;;;;;;;13.63;11.47;;;;;;;11.17;62.76;97700.63;6219776;28;20231;-88
2023/04/20 09:45:51;;;;;;;13.80;12.17;;;;;;;10.96;60.72;97646.22;6240531;28;20317;-88
2023/04/20 09:48:54;;;;;;;14.40;12.90;;;;;;;9.89;61.85;97521.25;6258707;28;20267;-88
2023/04/20 09:51:57;;;;;;;15.30;12.53;;;;;;;9.70;62.15;97486.06;6245271;28;20226;-88
2023/04/20 09:54:59;;;;;;;12.90;11.17;;;;;;;10.14;61.91;97544.78;6253561;28;20234;-89
2023/04/20 09:58:03;;;;;;;14.43;12.47;;;;;;;11.82;59.83;97779.19;6250454;28;20237;-88
2023/04/20 10:01:09;;;;;;;13.97;12.47;;;;;;;11.54;61.98;97769.47;6242773;28;20227;-87
2023/04/20 10:04:13;;;;;;;14.50;12.67;;;;;;;11.85;61.83;97768.84;6238950;28;20239;-88
2023/04/20 10:07:23;;;;;;;16.00;12.50;;;;;;;11.41;58.82;97668.44;6254875;28;20243;-88
2023/04/20 10:10:25;;;;;;;14.23;11.90;;;;;;;12.03;59.71;97777.59;6232364;28;20309;-88
2023/04/20 10:13:32;;;;;;;12.93;11.53;;;;;;;11.33;59.59;97691.03;6236899;28;20572;-89
2023/04/20 10:16:35;;;;;;;16.40;14.07;;;;;;;11.78;60.79;97754.84;6252134;28;20227;-89
2023/04/20 10:19:42;;;;;;;15.27;12.97;;;;;;;11.49;61.05;97716.03;6244619;28;20234;-88
2023/04/20 10:22:45;;;;;;;15.67;12.23;;;;;;;11.02;62.24;97634.59;6256264;28;20375;-88
2023/04/20 10:25:58;;;;;;;15.13;13.53;;;;;;;11.69;60.02;97678.13;6258593;28;20274;-88
2023/04/20 10:29:00;;;;;;;15.70;13.93;;;;;;;10.95;60.27;97625.97;6258028;28;20238;-89
2023/04/20 10:32:03;;;;;;;14.50;13.00;;;;;;;9.93;60.63;97406.09;6268050;28;20323;-88
2023/04/20 10:35:09;;;;;;;12.80;10.87;;;;;;;12.65;59.23;97742.47;6269240;28;20219;-89
2023/04/20 10:38:11;;;;;;;12.80;10.97;;;;;;;12.71;58.17;97705.88;6243531;28;20328;-89
2023/04/20 10:41:13;;;;;;;13.73;11.73;;;;;;;12.69;56.53;97649.22;6263084;28;20244;-88
2023/04/20 10:44:15;;;;;;;15.60;13.47;;;;;;;12.17;55.09;97607.09;6260497;28;20253;-88
2023/04/20 10:47:30;;;;;;;18.00;13.93;;;;;;;11.82;56.16;97579.00;6249523;28;20245;-88
2023/04/20 10:50:32;;;;;;;14.60;12.27;;;;;;;11.39;57.61;97516.66;6233130;28;20228;-88
2023/04/20 10:53:34;;;;;;;16.10;12.60;;;;;;;12.47;57.65;97626.06;6241046;28;20571;-88
2023/04/20 10:56:42;;;;;;;15.17;13.40;;;;;;;13.45;57.24;97730.00;6252987;28;20227;-88
2023/04/20 10:59:45;;;;;;;14.57;12.17;;;;;;;12.30;57.40;97543.38;6260184;28;20227;-88
2023/04/20 11:02:56;;;;;;;17.10;12.57;;;;;;;13.60;56.81;97702.53;6263968;28;20234;-89
2023/04/20 11:06:02;;;;;;;16.30;14.43;;;;;;;13.80;54.88;97707.97;6241832;28;20602;-92
2023/04/20 11:09:25;;;;;;;16.27;13.37;;;;;;;13.60;58.04;97681.91;6247425;28;20245;-91
2023/04/20 11:12:38;;;;;;;16.90;13.80;;;;;;;13.56;54.78;97698.75;6235139;28;20679;-91
2023/04/20 11:15:40;;;;;;;13.17;11.67;;;;;;;13.21;54.58;97643.16;6247051;28;20243;-92
2023/04/20 11:18:50;;;;;;;13.67;11.43;;;;;;;11.97;53.03;97459.03;6257179;28;20241;-89
2023/04/20 11:21:53;;;;;;;13.13;11.33;;;;;;;12.79;55.07;97571.78;6232033;28;20364;-89
2023/04/20 11:25:06;;;;;;;14.30;11.53;;;;;;;13.62;52.48;97677.09;6250263;28;20230;-89
2023/04/20 11:28:08;;;;;;;13.57;11.53;;;;;;;13.86;53.84;97736.38;6242806;28;20235;-89
2023/04/20 11:31:17;;;;;;;12.27;10.27;;;;;;;11.83;52.21;97473.88;6243569;28;20699;-88
2023/04/20 11:34:21;;;;;;;10.00;9.00;;;;;;;12.78;52.92;97679.75;6239117;28;20230;-88
2023/04/20 11:37:23;;;;;;;10.10;9.03;;;;;;;12.19;51.80;97629.84;6260822;28;20235;-88
2023/04/20 11:40:26;;;;;;;13.97;10.97;;;;;;;12.40;53.96;97625.47;6265484;28;20238;-88
2023/04/20 11:43:31;;;;;;;15.80;11.70;;;;;;;12.92;54.14;97675.59;6225158;28;20331;-90
2023/04/20 11:46:35;;;;;;;10.90;9.80;;;;;;;12.36;52.91;97545.06;6242423;28;20696;-89
2023/04/20 11:49:38;;;;;;;11.37;10.20;;;;;;;13.42;53.20;97682.34;6209847;28;20317;-90
2023/04/20 11:52:40;;;;;;;14.93;10.93;;;;;;;13.84;53.88;97732.31;6210158;28;20738;-90
2023/04/20 11:55:42;;;;;;;11.80;10.40;;;;;;;13.08;53.92;97597.06;6209656;28;20247;-90
2023/04/20 11:58:45;;;;;;;11.57;10.33;;;;;;;11.94;53.15;97424.84;6210927;28;20232;-89
2023/04/20 12:01:47;;;;;;;9.27;8.23;;;;;;;13.16;51.92;97591.22;6210110;28;20318;-89
2023/04/20 12:04:49;;;;;;;10.40;9.30;;;;;;;13.07;52.00;97598.13;6235227;28;20227;-89
2023/04/20 12:07:51;;;;;;;9.07;7.87;;;;;;;13.51;52.00;97646.00;6241244;28;20737;-89
2023/04/20 12:10:54;;;;;;;8.60;7.13;;;;;;;13.22;51.53;97610.00;6216881;28;20239;-89
2023/04/20 12:14:01;;;;;;;9.13;7.83;;;;;;;14.04;50.23;97644.03;6233918;28;20707;-89
2023/04/20 12:17:03;;;;;;;9.93;8.63;;;;;;;14.23;50.22;97702.47;6206563;28;20231;-89
2023/04/20 12:20:07;;;;;;;8.47;7.40;;;;;;;13.94;50.17;97663.56;6242586;28;20723;-88
2023/04/20 12:23:09;;;;;;;9.70;7.30;;;;;;;13.32;48.66;97535.94;6234423;28;20238;-89
2023/04/20 12:26:12;;;;;;;7.50;6.80;;;;;;;13.18;49.32;97545.50;6217846;28;20241;-89
2023/04/20 12:29:15;;;;;;;8.67;6.80;;;;;;;14.40;49.95;97692.31;6216098;28;20245;-89
2023/04/20 12:32:18;;;;;;;9.07;7.30;;;;;;;13.06;49.92;97510.94;6217356;28;20237;-89
2023/04/20 12:35:20;;;;;;;8.70;7.80;;;;;;;14.14;50.72;97654.78;6214183;28;20232;-89
2023/04/20 12:38:22;;;;;;;10.30;8.50;;;;;;;13.01;51.32;97435.25;6218105;28;20730;-89
2023/04/20 12:41:25;;;;;;;10.87;8.90;;;;;;;14.15;50.67;97592.06;6218493;28;20231;-89
2023/04/20 12:44:27;;;;;;;10.00;8.93;;;;;;;13.02;50.20;97423.50;6239709;28;20241;-89
2023/04/20 12:47:30;;;;;;;9.67;8.67;;;;;;;13.61;50.35;97525.59;6241980;28;20604;-89
2023/04/20 12:50:32;;;;;;;8.47;7.60;;;;;;;13.06;50.52;97497.59;6241287;28;20231;-89
2023/04/20 12:53:34;;;;;;;10.07;8.70;;;;;;;13.56;51.42;97595.16;6239581;28;20237;-89
2023/04/20 12:56:42;;;;;;;10.50;8.20;;;;;;;13.59;51.41;97575.88;6254671;28;20245;-89
2023/04/20 12:59:47;;;;;;;9.43;8.13;;;;;;;13.26;50.71;97462.09;6251230;28;20326;-88
2023/04/20 13:02:53;;;;;;;9.53;8.53;;;;;;;13.62;49.62;97571.91;6268662;28;20608;-89
2023/04/20 13:05:55;;;;;;;10.97;8.10;;;;;;;13.63;51.18;97574.28;6240536;28;20695;-89
2023/04/20 13:09:00;;;;;;;10.73;9.60;;;;;;;12.64;50.37;97426.28;6267538;28;20242;-89
2023/04/20 13:12:03;;;;;;;11.67;10.47;;;;;;;12.60;51.16;97445.78;6232246;28;20594;-89
2023/04/20 13:15:09;;;;;;;10.33;9.10;;;;;;;13.94;52.23;97686.88;6257262;28;20215;-89
2023/04/20 13:18:14;;;;;;;14.90;10.40;;;;;;;13.32;52.88;97570.72;6248193;28;20222;-89
2023/04/20 13:21:16;;;;;;;9.67;8.67;;;;;;;13.48;52.07;97526.09;6265421;28;20216;-89
2023/04/20 13:24:18;;;;;;;10.73;9.50;;;;;;;14.11;52.84;97682.06;6236712;28;20635;-89
2023/04/20 13:27:21;;;;;;;8.87;7.97;;;;;;;13.78;52.65;97596.81;6258793;28;20317;-88
2023/04/20 13:30:24;;;;;;;10.23;8.83;;;;;;;14.35;52.22;97670.88;6260651;28;20225;-89
2023/04/20 13:33:27;;;;;;;10.57;9.43;;;;;;;12.72;51.57;97402.81;6263437;28;20608;-89
2023/04/20 13:36:31;;;;;;;11.10;8.07;;;;;;;12.90;51.87;97453.91;6237578;28;20310;-89
2023/04/20 13:39:33;;;;;;;10.57;9.47;;;;;;;13.04;52.61;97467.59;6245471;28;20313;-89
2023/04/20 13:42:36;;;;;;;10.13;9.10;;;;;;;13.15;51.88;97449.72;6248845;28;20581;-89
2023/04/20 13:45:38;;;;;;;11.27;10.03;;;;;;;12.32;52.83;97358.84;6260366;28;20245;-88
2023/04/20 13:48:42;;;;;;;10.47;9.10;;;;;;;11.85;53.29;97354.31;6240377;28;20240;-89
2023/04/20 13:51:44;;;;;;;11.07;8.73;;;;;;;12.39;53.11;97391.44;6239059;28;20574;-89
2023/04/20 13:54:46;;;;;;;12.17;9.10;;;;;;;14.26;54.57;97665.22;6241261;28;20227;-89
2023/04/20 13:57:49;;;;;;;9.70;8.70;;;;;;;13.47;52.89;97518.31;6249709;28;20227;-88
2023/04/20 14:00:51;;;;;;;10.57;9.47;;;;;;;13.77;52.42;97557.75;6251687;28;20422;-89
2023/04/20 14:03:54;;;;;;;10.60;9.50;;;;;;;12.90;52.69;97416.47;6270745;28;20310;-88
2023/04/20 14:06:56;;;;;;;9.70;8.60;;;;;;;13.79;53.97;97553.75;6252930;28;20234;-89
2023/04/20 14:09:59;;;;;;;11.43;9.53;;;;;;;12.76;53.57;97375.31;6249103;28;20317;-89
2023/04/20 14:13:01;;;;;;;11.20;8.87;;;;;;;13.77;53.78;97536.31;6238088;28;20227;-88
2023/04/20 14:16:12;;;;;;;10.90;9.80;;;;;;;14.40;52.87;97603.88;6232621;28;20307;-89